Terminal Aerodrome Forecast
Issued by NWS

Home | Current Version | Previous Version | Text Only | Print | Product List | Glossary On
Versions: 1 2 3 4 5 6 7 8 9 10 11 12 13 14 15 16 17 18 19
000
FTUS42 KMLB 031740
TAFTIX
TAF
KTIX 031740Z 0318/0418 09008KT P6SM SCT015
     FM040000 13003KT P6SM FEW025 SCT250
     FM040900 18003KT 3SM BR SCT006 BKN010
      TEMPO 0409/0412 3SM BR BKN006
     FM041500 16010KT P6SM SCT010 BKN030=

USA.gov is the U.S. government's official web portal to all federal, state and local government web resources and services.